Time;durP1;ratioP1;P1;durP2;ratioP2;P2;SDS_P1;SDS_P2;PMS_P1;PMS_P2;Temp;Humidity;BMP_temperature;BMP_pressure;BME280_temperature;BME280_humidity;BME280_pressure;Samples;Min_cycle;Max_cycle;Signal;HPM_P1;HPM_P2
2022/11/25 00:00:22;;;;;;;;;;;7.00;99.90;;;;;;5122579;27;19924;-70
2022/11/25 00:02:48;;;;;;;;;;;7.00;99.90;;;;;;5127680;27;20401;-72
2022/11/25 00:05:13;;;;;;;;;;;7.00;99.90;;;;;;5101816;27;20361;-71
2022/11/25 00:07:39;;;;;;;;;;;7.00;99.90;;;;;;5136604;27;19927;-72
2022/11/25 00:10:05;;;;;;;;;;;7.00;99.90;;;;;;5083542;27;19935;-72
2022/11/25 00:12:31;;;;;;;;;;;7.10;99.90;;;;;;5082672;27;19924;-68
2022/11/25 00:14:56;;;;;;;;;;;7.10;99.90;;;;;;5115203;27;19941;-71
2022/11/25 00:17:22;;;;;;;;;;;7.10;99.90;;;;;;5090581;28;19959;-69
2022/11/25 00:19:47;;;;;;;;;;;7.10;99.90;;;;;;5114732;27;19939;-68
2022/11/25 00:22:13;;;;;;;;;;;7.20;99.90;;;;;;5115808;27;19919;-69
2022/11/25 00:24:39;;;;;;;;;;;7.20;99.90;;;;;;5115855;27;19931;-71
2022/11/25 00:27:05;;;;;;;;;;;7.20;99.90;;;;;;5118533;27;19953;-69
2022/11/25 00:29:30;;;;;;;;;;;7.20;99.90;;;;;;5078887;28;19927;-69
2022/11/25 00:31:56;;;;;;;;;;;7.20;99.90;;;;;;5115848;27;20215;-69
2022/11/25 00:34:21;;;;;;;;;;;7.20;99.90;;;;;;5083114;28;20386;-72
2022/11/25 00:36:47;;;;;;;;;;;7.30;99.90;;;;;;5081864;28;20324;-69
2022/11/25 00:39:14;;;;;;;;;;;7.20;99.90;;;;;;5081229;27;19920;-70
2022/11/25 00:44:39;;;;;;;;;;;7.30;99.90;;;;;;5086695;28;20028;-70
2022/11/25 00:47:05;;;;;;;;;;;7.30;99.90;;;;;;5081894;28;20382;-69
2022/11/25 00:49:31;;;;;;;;;;;7.30;99.90;;;;;;5085767;27;19945;-69
2022/11/25 00:51:56;;;;;;;;;;;7.30;99.90;;;;;;5081152;27;19920;-70
2022/11/25 00:54:22;;;;;;;;;;;7.30;99.90;;;;;;5082628;28;19931;-71
2022/11/25 00:56:47;;;;;;;;;;;7.30;99.90;;;;;;5083567;28;19928;-71
2022/11/25 00:59:13;;;;;;;;;;;7.30;99.90;;;;;;5085124;28;19927;-70
2022/11/25 01:01:38;;;;;;;;;;;7.30;99.90;;;;;;5077717;28;19932;-71
2022/11/25 01:04:04;;;;;;;;;;;7.30;99.90;;;;;;5086264;28;19927;-71
2022/11/25 01:06:30;;;;;;;;;;;7.30;99.90;;;;;;5117748;27;19924;-70
2022/11/25 01:08:55;;;;;;;;;;;7.20;99.90;;;;;;5091270;27;19924;-69
2022/11/25 01:11:21;;;;;;;;;;;7.30;99.90;;;;;;5096151;27;19924;-70
2022/11/25 01:13:47;;;;;;;;;;;7.30;99.90;;;;;;5133606;27;19924;-70
2022/11/25 01:16:14;;;;;;;;;;;7.30;99.90;;;;;;5100043;27;19998;-68
2022/11/25 01:18:40;;;;;;;;;;;7.40;99.90;;;;;;5131935;27;19920;-69
2022/11/25 01:21:15;;;;;;;;;;;7.40;99.90;;;;;;5098456;27;19934;-70
2022/11/25 01:23:41;;;;;;;;;;;7.40;99.90;;;;;;5135453;27;20398;-71
2022/11/25 01:26:09;;;;;;;;;;;7.30;99.90;;;;;;5100308;28;19920;-70
2022/11/25 01:28:34;;;;;;;;;;;7.40;99.90;;;;;;5135564;27;19924;-70
2022/11/25 01:31:01;;;;;;;;;;;7.40;99.90;;;;;;5098266;27;19920;-72
2022/11/25 01:33:26;;;;;;;;;;;7.40;99.90;;;;;;5100070;27;19920;-71
2022/11/25 01:35:52;;;;;;;;;;;7.50;99.90;;;;;;5093403;27;19928;-71
2022/11/25 01:38:17;;;;;;;;;;;7.40;99.90;;;;;;5102150;28;19920;-69
2022/11/25 01:40:43;;;;;;;;;;;7.40;99.90;;;;;;5096341;27;19939;-71
2022/11/25 01:43:13;;;;;;;;;;;7.40;99.90;;;;;;5098801;27;19984;-73
2022/11/25 01:45:39;;;;;;;;;;;7.50;99.90;;;;;;5129735;27;19981;-67
2022/11/25 01:48:10;;;;;;;;;;;7.50;99.90;;;;;;5102129;27;19930;-70
2022/11/25 01:50:35;;;;;;;;;;;7.40;99.90;;;;;;5095890;27;19935;-72
2022/11/25 01:53:03;;;;;;;;;;;7.40;99.90;;;;;;5097865;27;19920;-69
2022/11/25 01:55:32;;;;;;;;;;;7.40;99.90;;;;;;5095379;28;20294;-70
2022/11/25 01:57:57;;;;;;;;;;;7.40;99.90;;;;;;5096299;27;19924;-68
2022/11/25 02:00:24;;;;;;;;;;;7.40;99.90;;;;;;5095681;27;19927;-66
2022/11/25 02:02:52;;;;;;;;;;;7.40;99.90;;;;;;5094643;27;19928;-67
2022/11/25 02:05:19;;;;;;;;;;;7.50;99.90;;;;;;5098396;27;20402;-67
2022/11/25 02:07:46;;;;;;;;;;;7.40;99.90;;;;;;5093866;28;19924;-66
2022/11/25 02:10:18;;;;;;;;;;;7.40;99.90;;;;;;5075327;28;19920;-66
2022/11/25 02:12:44;;;;;;;;;;;7.40;99.90;;;;;;5082117;27;19920;-66
2022/11/25 02:15:10;;;;;;;;;;;7.40;99.90;;;;;;5103982;28;19924;-68
2022/11/25 02:17:36;;;;;;;;;;;7.40;99.90;;;;;;5112156;27;19967;-67
2022/11/25 02:20:04;;;;;;;;;;;7.40;99.90;;;;;;5084508;28;19924;-68
2022/11/25 02:22:51;;;;;;;;;;;7.30;99.90;;;;;;5112313;27;19927;-67
2022/11/25 02:25:22;;;;;;;;;;;7.40;99.90;;;;;;5113846;27;20420;-66
2022/11/25 02:27:49;;;;;;;;;;;7.30;99.90;;;;;;5076153;28;20018;-65
2022/11/25 02:30:15;;;;;;;;;;;7.40;99.90;;;;;;5099183;27;20434;-65
2022/11/25 02:32:44;;;;;;;;;;;7.30;99.90;;;;;;5077957;28;19958;-66
2022/11/25 02:35:23;;;;;;;;;;;7.30;99.90;;;;;;5114530;27;20653;-65
2022/11/25 02:37:48;;;;;;;;;;;7.40;99.90;;;;;;5108997;27;20011;-65
2022/11/25 02:40:14;;;;;;;;;;;7.40;99.90;;;;;;5081522;28;20054;-65
2022/11/25 02:42:40;;;;;;;;;;;7.40;99.90;;;;;;5076684;28;20646;-66
2022/11/25 02:45:09;;;;;;;;;;;7.40;99.90;;;;;;5077959;28;20370;-65
2022/11/25 02:47:35;;;;;;;;;;;7.50;99.90;;;;;;5081617;28;20421;-65
2022/11/25 02:50:00;;;;;;;;;;;7.50;99.90;;;;;;5080819;28;20011;-65
2022/11/25 02:52:26;;;;;;;;;;;7.40;99.90;;;;;;5079106;28;21275;-64
2022/11/25 02:54:51;;;;;;;;;;;7.50;99.90;;;;;;5081380;28;19927;-65
2022/11/25 02:57:17;;;;;;;;;;;7.40;99.90;;;;;;5083247;28;20521;-64
2022/11/25 02:59:42;;;;;;;;;;;7.40;99.90;;;;;;5084646;28;19920;-65
2022/11/25 03:02:08;;;;;;;;;;;7.50;99.90;;;;;;5079630;28;20565;-65
2022/11/25 03:04:34;;;;;;;;;;;7.60;99.90;;;;;;5083308;28;19934;-65
2022/11/25 03:06:59;;;;;;;;;;;7.60;99.90;;;;;;5078259;28;20484;-65
2022/11/25 03:09:25;;;;;;;;;;;7.60;99.90;;;;;;5124143;27;19920;-65
2022/11/25 03:14:35;;;;;;;;;;;7.60;99.90;;;;;;5091584;28;20322;-65
2022/11/25 03:17:00;;;;;;;;;;;7.60;99.90;;;;;;5096350;28;19920;-65
2022/11/25 03:19:26;;;;;;;;;;;7.60;99.90;;;;;;5097721;28;19942;-65
2022/11/25 03:21:51;;;;;;;;;;;7.70;99.90;;;;;;5093352;28;21329;-65
2022/11/25 03:24:17;;;;;;;;;;;7.60;99.90;;;;;;5101855;28;20365;-66
2022/11/25 03:26:42;;;;;;;;;;;7.70;99.90;;;;;;5096406;28;19923;-64
2022/11/25 03:29:08;;;;;;;;;;;7.60;99.90;;;;;;5099242;28;19920;-64
2022/11/25 03:31:33;;;;;;;;;;;7.60;99.90;;;;;;5095867;28;19928;-65
2022/11/25 03:33:59;;;;;;;;;;;7.70;99.90;;;;;;5098545;28;19920;-64
2022/11/25 03:36:24;;;;;;;;;;;7.70;99.90;;;;;;5097546;28;19971;-65
2022/11/25 03:38:50;;;;;;;;;;;7.70;99.90;;;;;;5100733;27;19919;-65
2022/11/25 03:41:15;;;;;;;;;;;7.70;99.90;;;;;;5084575;28;20290;-65
2022/11/25 03:43:40;;;;;;;;;;;7.70;99.90;;;;;;5100182;27;19924;-64
2022/11/25 03:46:06;;;;;;;;;;;7.70;99.90;;;;;;5134442;27;19920;-64
2022/11/25 03:48:31;;;;;;;;;;;7.70;99.90;;;;;;5100912;27;19924;-64
2022/11/25 03:50:57;;;;;;;;;;;7.80;99.90;;;;;;5098206;28;19927;-64
2022/11/25 03:53:22;;;;;;;;;;;7.80;99.90;;;;;;5105916;27;20058;-64
2022/11/25 03:55:48;;;;;;;;;;;7.70;99.90;;;;;;5099620;27;19919;-65
2022/11/25 03:58:13;;;;;;;;;;;7.70;99.90;;;;;;5098031;27;19928;-64
2022/11/25 04:00:39;;;;;;;;;;;7.80;99.90;;;;;;5103098;27;20011;-64
2022/11/25 04:03:04;;;;;;;;;;;7.70;99.90;;;;;;5106591;27;19928;-64
2022/11/25 04:05:30;;;;;;;;;;;7.70;99.90;;;;;;5100157;28;19939;-65
2022/11/25 04:07:55;;;;;;;;;;;7.70;99.90;;;;;;5103142;27;19967;-65
2022/11/25 04:10:21;;;;;;;;;;;7.70;99.90;;;;;;5084112;27;19976;-65
2022/11/25 04:12:46;;;;;;;;;;;7.70;99.90;;;;;;5079091;28;19924;-64
2022/11/25 04:15:13;;;;;;;;;;;7.80;99.90;;;;;;5077158;28;19987;-64
2022/11/25 04:17:41;;;;;;;;;;;7.90;99.90;;;;;;5085301;28;20297;-64
2022/11/25 04:20:07;;;;;;;;;;;7.90;99.90;;;;;;5118950;27;20011;-64
2022/11/25 04:22:32;;;;;;;;;;;7.80;99.90;;;;;;5114923;27;19924;-65
2022/11/25 04:24:58;;;;;;;;;;;7.80;99.90;;;;;;5068974;28;19930;-65
2022/11/25 04:27:23;;;;;;;;;;;7.80;99.90;;;;;;5085007;28;19919;-65
2022/11/25 04:29:49;;;;;;;;;;;7.80;99.90;;;;;;5083003;27;19939;-65
2022/11/25 04:32:14;;;;;;;;;;;7.70;99.90;;;;;;5085940;27;19969;-65
2022/11/25 04:34:40;;;;;;;;;;;7.70;99.90;;;;;;5086753;28;19930;-65
2022/11/25 04:37:05;;;;;;;;;;;7.80;99.90;;;;;;5087013;27;19919;-64
2022/11/25 04:39:31;;;;;;;;;;;7.70;99.90;;;;;;5080863;27;19941;-64
2022/11/25 04:44:41;;;;;;;;;;;7.80;99.90;;;;;;5085314;28;20016;-65
2022/11/25 04:47:06;;;;;;;;;;;7.70;99.90;;;;;;5077536;28;20355;-66
2022/11/25 04:49:31;;;;;;;;;;;7.70;99.90;;;;;;5109459;27;19927;-65
2022/11/25 04:51:57;;;;;;;;;;;7.80;99.90;;;;;;5084307;27;19998;-66
2022/11/25 04:54:22;;;;;;;;;;;7.80;99.90;;;;;;5086027;28;20411;-65
2022/11/25 04:56:48;;;;;;;;;;;7.70;99.90;;;;;;5087432;28;20014;-65
2022/11/25 05:01:58;;;;;;;;;;;7.70;99.90;;;;;;5082026;28;21868;-65
2022/11/25 05:04:23;;;;;;;;;;;7.70;99.90;;;;;;5081537;28;19931;-66
2022/11/25 05:06:50;;;;;;;;;;;7.80;99.90;;;;;;5087284;27;19920;-64
2022/11/25 05:09:16;;;;;;;;;;;7.70;99.90;;;;;;5093869;28;19924;-65
2022/11/25 05:11:41;;;;;;;;;;;7.70;99.90;;;;;;5098041;27;19927;-65
2022/11/25 05:14:07;;;;;;;;;;;7.70;99.90;;;;;;5129301;27;19939;-65
2022/11/25 05:16:32;;;;;;;;;;;7.70;99.90;;;;;;5126302;27;20282;-65
2022/11/25 05:18:58;;;;;;;;;;;7.70;99.90;;;;;;5093596;28;19923;-65
2022/11/25 05:21:23;;;;;;;;;;;7.70;99.90;;;;;;5095619;28;19924;-66
2022/11/25 05:23:49;;;;;;;;;;;7.90;99.90;;;;;;5097310;28;19992;-65
2022/11/25 05:26:14;;;;;;;;;;;7.80;99.90;;;;;;5090810;28;19928;-65
2022/11/25 05:28:40;;;;;;;;;;;7.80;99.90;;;;;;5093083;27;19927;-65
2022/11/25 05:31:05;;;;;;;;;;;7.90;99.90;;;;;;5110777;27;20307;-66
2022/11/25 05:33:31;;;;;;;;;;;7.90;99.90;;;;;;5092353;27;20127;-65
2022/11/25 05:36:00;;;;;;;;;;;7.90;99.90;;;;;;5094967;27;19931;-67
2022/11/25 05:38:26;;;;;;;;;;;8.00;99.90;;;;;;5099227;28;20027;-65
2022/11/25 05:40:52;;;;;;;;;;;8.00;99.90;;;;;;5085237;28;20317;-65
2022/11/25 05:43:18;;;;;;;;;;;7.90;99.90;;;;;;5127334;27;20412;-65
2022/11/25 05:45:43;;;;;;;;;;;8.00;99.90;;;;;;5088870;27;20363;-64
2022/11/25 05:48:09;;;;;;;;;;;8.00;99.90;;;;;;5126341;27;19935;-64
2022/11/25 05:50:35;;;;;;;;;;;8.00;99.90;;;;;;5090941;28;19963;-66
2022/11/25 05:53:01;;;;;;;;;;;8.10;99.90;;;;;;5093233;27;19928;-65
2022/11/25 05:55:27;;;;;;;;;;;8.10;99.90;;;;;;5095182;28;19965;-65
2022/11/25 05:57:53;;;;;;;;;;;8.10;99.90;;;;;;5095202;28;19958;-63
2022/11/25 06:00:19;;;;;;;;;;;8.10;99.90;;;;;;5092893;28;19967;-65
2022/11/25 06:02:48;;;;;;;;;;;8.00;99.90;;;;;;5090790;27;20015;-64
2022/11/25 06:05:13;;;;;;;;;;;8.10;99.90;;;;;;5092586;28;19949;-65
2022/11/25 06:07:39;;;;;;;;;;;8.10;99.90;;;;;;5088186;28;19920;-64
2022/11/25 06:10:04;;;;;;;;;;;8.10;99.90;;;;;;5074716;28;19938;-65
2022/11/25 06:12:30;;;;;;;;;;;8.00;99.90;;;;;;5080728;27;19926;-65
2022/11/25 06:14:55;;;;;;;;;;;8.10;99.90;;;;;;5078865;28;20290;-65
2022/11/25 06:17:21;;;;;;;;;;;8.10;99.90;;;;;;5076268;28;19962;-66
2022/11/25 06:19:46;;;;;;;;;;;8.10;99.90;;;;;;5073993;28;19924;-65
2022/11/25 06:22:12;;;;;;;;;;;8.10;99.90;;;;;;5077922;28;19960;-67
2022/11/25 06:24:38;;;;;;;;;;;8.00;99.90;;;;;;5079100;28;20351;-67
2022/11/25 06:27:03;;;;;;;;;;;8.10;99.90;;;;;;5104995;27;20072;-65
2022/11/25 06:29:29;;;;;;;;;;;8.10;99.90;;;;;;5079013;28;19942;-65
2022/11/25 06:31:54;;;;;;;;;;;8.10;99.90;;;;;;5076124;28;21359;-66
2022/11/25 06:34:20;;;;;;;;;;;8.10;99.90;;;;;;5073697;28;19984;-67
2022/11/25 06:36:47;;;;;;;;;;;8.10;99.90;;;;;;5079183;28;20392;-66
2022/11/25 06:39:13;;;;;;;;;;;8.00;99.90;;;;;;5077504;28;19923;-65
2022/11/25 06:41:38;;;;;;;;;;;7.90;99.90;;;;;;5080098;28;20001;-66
2022/11/25 06:44:04;;;;;;;;;;;7.90;99.90;;;;;;5096695;28;20382;-65
2022/11/25 06:46:30;;;;;;;;;;;7.70;99.90;;;;;;5075599;28;19923;-66
2022/11/25 06:48:57;;;;;;;;;;;7.60;99.90;;;;;;5073055;28;19924;-65
2022/11/25 06:51:23;;;;;;;;;;;7.60;99.90;;;;;;5073191;28;19958;-65
2022/11/25 06:53:48;;;;;;;;;;;7.60;99.90;;;;;;5071896;28;20020;-66
2022/11/25 06:56:18;;;;;;;;;;;7.40;99.90;;;;;;5111507;27;19973;-66
2022/11/25 06:58:44;;;;;;;;;;;7.50;99.90;;;;;;5071189;28;19970;-65
2022/11/25 07:01:12;;;;;;;;;;;7.50;99.90;;;;;;5087219;28;19973;-65
2022/11/25 07:03:37;;;;;;;;;;;7.40;99.90;;;;;;5070787;28;19924;-65
2022/11/25 07:06:03;;;;;;;;;;;7.30;99.90;;;;;;5112314;28;21603;-66
2022/11/25 07:08:29;;;;;;;;;;;7.30;99.90;;;;;;5078396;28;19927;-65
2022/11/25 07:10:54;;;;;;;;;;;7.20;99.90;;;;;;5127402;27;19928;-65
2022/11/25 07:13:20;;;;;;;;;;;7.10;99.90;;;;;;5128597;27;19920;-65
2022/11/25 07:15:46;;;;;;;;;;;7.10;99.90;;;;;;5097761;27;19924;-64
2022/11/25 07:18:11;;;;;;;;;;;7.10;99.90;;;;;;5098195;27;20294;-64
2022/11/25 07:20:38;;;;;;;;;;;7.10;99.90;;;;;;5111742;27;20406;-66
2022/11/25 07:23:03;;;;;;;;;;;7.00;99.90;;;;;;5094171;27;19928;-65
2022/11/25 07:25:29;;;;;;;;;;;7.00;99.90;;;;;;5125650;27;19943;-65
2022/11/25 07:27:54;;;;;;;;;;;7.10;99.90;;;;;;5093220;27;20318;-65
2022/11/25 07:30:20;;;;;;;;;;;7.00;99.90;;;;;;5100618;28;19923;-65
2022/11/25 07:32:45;;;;;;;;;;;7.10;99.90;;;;;;5101722;27;20434;-65
2022/11/25 07:35:11;;;;;;;;;;;7.10;99.90;;;;;;5078310;28;20375;-65
2022/11/25 07:37:37;;;;;;;;;;;7.00;99.90;;;;;;5096493;27;19963;-66
2022/11/25 07:40:03;;;;;;;;;;;7.10;99.90;;;;;;5094558;28;20290;-65
2022/11/25 07:42:28;;;;;;;;;;;7.00;99.90;;;;;;5097680;27;19935;-65
2022/11/25 07:44:54;;;;;;;;;;;7.10;99.90;;;;;;5140232;27;19960;-66
2022/11/25 07:47:19;;;;;;;;;;;7.20;99.90;;;;;;5106556;27;20003;-65
2022/11/25 07:49:44;;;;;;;;;;;7.10;99.90;;;;;;5112577;28;19924;-65
2022/11/25 07:52:10;;;;;;;;;;;7.20;99.90;;;;;;5105842;28;20382;-65
2022/11/25 07:54:35;;;;;;;;;;;7.20;99.90;;;;;;5113786;28;19924;-65
2022/11/25 07:57:01;;;;;;;;;;;7.10;99.90;;;;;;5098283;28;20402;-65
2022/11/25 07:59:26;;;;;;;;;;;7.10;99.90;;;;;;5094965;28;19920;-65
2022/11/25 08:01:53;;;;;;;;;;;7.20;99.90;;;;;;5105055;28;19920;-65
2022/11/25 08:04:19;;;;;;;;;;;7.30;99.90;;;;;;5111442;28;19978;-67
2022/11/25 08:06:45;;;;;;;;;;;7.20;99.90;;;;;;5101705;28;19967;-65
2022/11/25 08:09:12;;;;;;;;;;;7.30;99.90;;;;;;5135853;27;20351;-67
2022/11/25 08:11:38;;;;;;;;;;;7.30;99.90;;;;;;5103491;28;19924;-67
2022/11/25 08:14:03;;;;;;;;;;;7.30;99.90;;;;;;5116369;27;20388;-65
2022/11/25 08:16:30;;;;;;;;;;;7.40;99.90;;;;;;5118873;27;19916;-66
2022/11/25 08:18:56;;;;;;;;;;;7.50;99.90;;;;;;5110360;27;19924;-65
2022/11/25 08:21:22;;;;;;;;;;;7.60;99.90;;;;;;5111259;28;20307;-71
2022/11/25 08:23:47;;;;;;;;;;;7.60;99.90;;;;;;5110472;28;20393;-67
2022/11/25 08:26:15;;;;;;;;;;;7.70;99.90;;;;;;5132100;27;20431;-70
2022/11/25 08:28:41;;;;;;;;;;;7.80;99.90;;;;;;5101261;28;19923;-70
2022/11/25 08:31:08;;;;;;;;;;;7.70;99.90;;;;;;5102740;28;19920;-67
2022/11/25 08:33:33;;;;;;;;;;;7.80;99.90;;;;;;5109734;28;19927;-67
2022/11/25 08:35:59;;;;;;;;;;;7.80;99.90;;;;;;5111282;28;19919;-67
2022/11/25 08:38:25;;;;;;;;;;;7.90;99.90;;;;;;5095816;28;19927;-69
2022/11/25 08:40:51;;;;;;;;;;;7.80;99.90;;;;;;5134252;27;19927;-66
2022/11/25 08:43:17;;;;;;;;;;;7.90;99.90;;;;;;5091020;28;19932;-66
2022/11/25 08:45:42;;;;;;;;;;;7.80;99.90;;;;;;5097798;28;20017;-67
2022/11/25 08:48:08;;;;;;;;;;;7.90;99.90;;;;;;5108962;28;19993;-67
2022/11/25 08:50:34;;;;;;;;;;;7.90;99.90;;;;;;5104326;28;19920;-67
2022/11/25 08:53:00;;;;;;;;;;;7.90;99.90;;;;;;5109868;28;19923;-67
2022/11/25 08:55:26;;;;;;;;;;;7.90;99.90;;;;;;5116867;27;20037;-68
2022/11/25 08:57:52;;;;;;;;;;;7.90;99.90;;;;;;5108512;28;19926;-66
2022/11/25 09:00:18;;;;;;;;;;;8.00;99.90;;;;;;5108107;28;19946;-68
2022/11/25 09:02:43;;;;;;;;;;;8.00;99.90;;;;;;5103401;27;19928;-66
2022/11/25 09:05:10;;;;;;;;;;;8.00;99.90;;;;;;5106665;28;19980;-69
2022/11/25 09:07:36;;;;;;;;;;;7.90;99.90;;;;;;5107454;28;19931;-70
2022/11/25 09:10:01;;;;;;;;;;;7.90;99.90;;;;;;5098755;27;20346;-68
2022/11/25 09:12:27;;;;;;;;;;;8.10;99.90;;;;;;5091709;28;19946;-71
2022/11/25 09:14:52;;;;;;;;;;;8.00;99.90;;;;;;5088995;28;19920;-72
2022/11/25 09:17:18;;;;;;;;;;;8.10;99.90;;;;;;5090587;28;20328;-66
2022/11/25 09:19:43;;;;;;;;;;;8.10;99.90;;;;;;5093214;28;19926;-68
2022/11/25 09:22:09;;;;;;;;;;;8.10;99.90;;;;;;5071010;28;19934;-68
2022/11/25 09:24:35;;;;;;;;;;;8.30;99.90;;;;;;5085835;28;20202;-67
2022/11/25 09:27:00;;;;;;;;;;;8.20;99.90;;;;;;5081171;28;20286;-69
2022/11/25 09:29:26;;;;;;;;;;;8.20;99.90;;;;;;5093018;28;19971;-70
2022/11/25 09:31:52;;;;;;;;;;;8.40;99.90;;;;;;5087493;28;19999;-71
2022/11/25 09:34:17;;;;;;;;;;;8.40;99.90;;;;;;5085218;28;20011;-69
2022/11/25 09:36:43;;;;;;;;;;;8.30;99.90;;;;;;5121648;27;20112;-66
2022/11/25 09:39:09;;;;;;;;;;;8.50;99.90;;;;;;5094137;28;19949;-68
2022/11/25 09:47:52;;;;;;;;;;;8.50;99.90;;;;;;5094394;28;19926;-76
2022/11/25 09:50:25;;;;;;;;;;;8.60;99.90;;;;;;5081471;28;20426;-69
2022/11/25 09:52:56;;;;;;;;;;;8.60;99.90;;;;;;5081908;28;19924;-76
2022/11/25 09:55:23;;;;;;;;;;;8.60;99.90;;;;;;5091588;28;19919;-74
2022/11/25 09:57:52;;;;;;;;;;;8.80;99.90;;;;;;5125632;27;19927;-69
2022/11/25 10:00:18;;;;;;;;;;;8.80;99.90;;;;;;5077428;28;20407;-66
2022/11/25 10:03:02;;;;;;;;;;;8.80;99.90;;;;;;5093041;28;19920;-68
2022/11/25 10:05:31;;;;;;;;;;;8.80;99.90;;;;;;5074752;28;19973;-73
2022/11/25 10:08:00;;;;;;;;;;;8.90;99.90;;;;;;5081634;28;19920;-74
2022/11/25 10:10:27;;;;;;;;;;;9.00;99.90;;;;;;5094469;28;19924;-72
2022/11/25 10:12:54;;;;;;;;;;;9.10;99.90;;;;;;5072376;28;20238;-69
2022/11/25 10:15:24;;;;;;;;;;;9.10;99.90;;;;;;5094305;28;20385;-73
2022/11/25 10:17:50;;;;;;;;;;;9.10;99.90;;;;;;5087304;28;20298;-68
2022/11/25 10:20:29;;;;;;;;;;;9.20;99.90;;;;;;5092421;28;19935;-70
2022/11/25 10:22:58;;;;;;;;;;;9.30;99.90;;;;;;5110186;27;19954;-76
2022/11/25 10:25:26;;;;;;;;;;;9.20;99.90;;;;;;5088643;28;20287;-75
2022/11/25 10:27:59;;;;;;;;;;;9.30;99.90;;;;;;5084596;28;19931;-65
2022/11/25 10:30:25;;;;;;;;;;;9.30;99.90;;;;;;5092322;28;20011;-75
2022/11/25 10:32:51;;;;;;;;;;;9.30;99.90;;;;;;5082546;28;20516;-66
2022/11/25 10:35:27;;;;;;;;;;;9.30;99.90;;;;;;5094120;28;19924;-71
2022/11/25 10:37:54;;;;;;;;;;;9.30;99.90;;;;;;5083345;28;19926;-67
2022/11/25 10:40:20;;;;;;;;;;;9.50;99.90;;;;;;5091439;28;19920;-76
2022/11/25 10:42:45;;;;;;;;;;;9.50;99.90;;;;;;5081933;28;19924;-74
2022/11/25 10:45:11;;;;;;;;;;;9.60;99.90;;;;;;5108112;28;19924;-74
2022/11/25 10:47:56;;;;;;;;;;;9.60;99.90;;;;;;5089075;28;19979;-75
2022/11/25 10:50:47;;;;;;;;;;;9.70;99.90;;;;;;5082662;28;20092;-68
2022/11/25 10:53:19;;;;;;;;;;;9.70;99.90;;;;;;5051631;28;19928;-69
2022/11/25 10:56:08;;;;;;;;;;;9.80;99.90;;;;;;5073557;28;19920;-68
2022/11/25 10:58:35;;;;;;;;;;;9.80;99.90;;;;;;5080794;28;19927;-69
2022/11/25 11:01:21;;;;;;;;;;;9.80;99.90;;;;;;5092574;28;19920;-68
2022/11/25 11:04:09;;;;;;;;;;;9.90;99.90;;;;;;5084798;28;19941;-72
2022/11/25 11:06:36;;;;;;;;;;;9.90;99.90;;;;;;5073584;28;19924;-74
2022/11/25 11:09:02;;;;;;;;;;;9.90;99.90;;;;;;5123962;27;19994;-76
2022/11/25 11:11:28;;;;;;;;;;;9.90;99.90;;;;;;5100082;28;19963;-73
2022/11/25 11:14:09;;;;;;;;;;;9.90;99.90;;;;;;5099349;28;19959;-75
2022/11/25 11:16:36;;;;;;;;;;;9.90;99.90;;;;;;5116055;27;19924;-71
2022/11/25 11:19:02;;;;;;;;;;;9.90;99.90;;;;;;5108342;28;19992;-72
2022/11/25 11:21:35;;;;;;;;;;;9.90;99.90;;;;;;5108782;28;19927;-68
2022/11/25 11:24:02;;;;;;;;;;;9.90;99.90;;;;;;5125146;27;20431;-73
2022/11/25 11:26:29;;;;;;;;;;;9.90;99.90;;;;;;5094568;28;19967;-75
2022/11/25 11:28:57;;;;;;;;;;;10.00;99.90;;;;;;5101671;28;20316;-70
2022/11/25 11:31:27;;;;;;;;;;;10.00;99.90;;;;;;5092891;28;19920;-73
2022/11/25 11:33:57;;;;;;;;;;;10.00;99.90;;;;;;5132285;27;19926;-74
2022/11/25 11:36:33;;;;;;;;;;;10.00;99.90;;;;;;5096256;28;19934;-79
2022/11/25 11:39:01;;;;;;;;;;;10.10;99.90;;;;;;5108679;28;20022;-78
2022/11/25 11:41:36;;;;;;;;;;;10.10;99.90;;;;;;5093239;28;19931;-75
2022/11/25 11:44:28;;;;;;;;;;;10.10;99.90;;;;;;5133511;27;19940;-70
2022/11/25 11:46:56;;;;;;;;;;;10.20;99.90;;;;;;5096563;28;20026;-76
2022/11/25 11:49:30;;;;;;;;;;;10.30;99.90;;;;;;5092079;28;19920;-73
2022/11/25 11:51:59;;;;;;;;;;;10.40;99.90;;;;;;5101266;28;19928;-70
2022/11/25 11:54:44;;;;;;;;;;;10.50;99.90;;;;;;5098532;28;20458;-76
2022/11/25 11:57:19;;;;;;;;;;;10.60;99.90;;;;;;5092439;28;19932;-69
2022/11/25 11:59:49;;;;;;;;;;;10.70;99.90;;;;;;5113751;27;19920;-72
2022/11/25 12:02:47;;;;;;;;;;;10.80;99.90;;;;;;5103495;28;19919;-72
2022/11/25 12:05:16;;;;;;;;;;;10.90;99.90;;;;;;5073261;28;19930;-78
2022/11/25 12:07:54;;;;;;;;;;;11.10;99.90;;;;;;5114941;27;20358;-69
2022/11/25 12:10:26;;;;;;;;;;;11.20;99.90;;;;;;5095831;28;19967;-71
2022/11/25 12:13:04;;;;;;;;;;;11.20;99.90;;;;;;5089945;28;19920;-69
2022/11/25 12:15:35;;;;;;;;;;;11.20;99.90;;;;;;5088647;28;19935;-71
2022/11/25 12:18:03;;;;;;;;;;;11.20;99.90;;;;;;5090478;28;20010;-70
2022/11/25 12:20:32;;;;;;;;;;;11.30;99.90;;;;;;5093838;28;19947;-69
2022/11/25 12:23:02;;;;;;;;;;;11.20;99.90;;;;;;5085964;27;19919;-72
2022/11/25 12:25:34;;;;;;;;;;;11.10;99.90;;;;;;5091433;28;19924;-71
2022/11/25 12:28:06;;;;;;;;;;;11.00;99.90;;;;;;5100964;28;20343;-69
2022/11/25 12:30:39;;;;;;;;;;;10.90;99.90;;;;;;5086201;28;19971;-67
2022/11/25 12:33:04;;;;;;;;;;;10.90;99.90;;;;;;5089940;28;20412;-69
2022/11/25 12:35:39;;;;;;;;;;;10.80;99.90;;;;;;5091722;28;19920;-66
2022/11/25 12:38:17;;;;;;;;;;;10.80;99.90;;;;;;5077264;28;19959;-67
2022/11/25 12:40:53;;;;;;;;;;;10.70;99.90;;;;;;5116543;27;19923;-66
2022/11/25 12:43:37;;;;;;;;;;;10.70;99.90;;;;;;5091741;28;19985;-69
2022/11/25 12:46:22;;;;;;;;;;;10.80;99.90;;;;;;5083636;28;19924;-66
2022/11/25 12:48:48;;;;;;;;;;;10.80;99.90;;;;;;5099434;27;19984;-65
2022/11/25 12:51:25;;;;;;;;;;;10.90;99.90;;;;;;5104871;27;20454;-67
2022/11/25 12:54:01;;;;;;;;;;;10.90;99.90;;;;;;5090451;28;19926;-69
2022/11/25 12:56:38;;;;;;;;;;;10.90;99.90;;;;;;5090442;28;19946;-67
2022/11/25 12:59:23;;;;;;;;;;;10.80;99.90;;;;;;5086340;27;20445;-66
2022/11/25 13:02:07;;;;;;;;;;;10.80;99.90;;;;;;5098789;28;19967;-67
2022/11/25 13:04:48;;;;;;;;;;;10.70;99.90;;;;;;5091970;28;19936;-68
2022/11/25 13:07:23;;;;;;;;;;;10.70;99.90;;;;;;5085692;28;19920;-68
2022/11/25 13:09:58;;;;;;;;;;;10.80;99.90;;;;;;5110336;27;20355;-70
2022/11/25 13:12:36;;;;;;;;;;;10.80;99.90;;;;;;5100851;28;20389;-73
2022/11/25 13:15:31;;;;;;;;;;;10.80;99.90;;;;;;5109631;27;19926;-72
2022/11/25 13:18:03;;;;;;;;;;;10.70;99.90;;;;;;5099259;28;20371;-69
2022/11/25 13:20:28;;;;;;;;;;;10.60;99.90;;;;;;5108829;28;19935;-70
2022/11/25 13:23:06;;;;;;;;;;;10.60;99.90;;;;;;5107194;28;20374;-68
2022/11/25 13:25:33;;;;;;;;;;;10.60;99.90;;;;;;5107881;28;19969;-72
2022/11/25 13:27:59;;;;;;;;;;;10.40;99.90;;;;;;5107042;28;19919;-70
2022/11/25 13:30:31;;;;;;;;;;;10.40;99.90;;;;;;5111186;28;20003;-71
2022/11/25 13:33:17;;;;;;;;;;;10.30;99.90;;;;;;5107428;27;19930;-70
2022/11/25 13:35:42;;;;;;;;;;;10.30;99.90;;;;;;5061157;28;20034;-70
2022/11/25 13:38:27;;;;;;;;;;;10.30;99.90;;;;;;5104363;27;20409;-70
2022/11/25 13:40:56;;;;;;;;;;;10.40;99.90;;;;;;5106891;27;19919;-70
2022/11/25 13:43:22;;;;;;;;;;;10.50;99.90;;;;;;5100297;28;19920;-71
2022/11/25 13:45:48;;;;;;;;;;;10.50;99.90;;;;;;5107095;28;19926;-70
2022/11/25 13:48:17;;;;;;;;;;;10.50;99.90;;;;;;5108937;27;19920;-70
2022/11/25 13:50:44;;;;;;;;;;;10.50;99.90;;;;;;5129767;27;21360;-70
2022/11/25 13:53:18;;;;;;;;;;;10.50;99.90;;;;;;5111280;27;19919;-73
2022/11/25 13:55:44;;;;;;;;;;;10.40;99.90;;;;;;5103378;27;19923;-71
2022/11/25 13:58:19;;;;;;;;;;;10.40;99.90;;;;;;5104127;27;19926;-69
2022/11/25 14:00:57;;;;;;;;;;;10.30;99.90;;;;;;5138219;27;19919;-71
2022/11/25 14:03:23;;;;;;;;;;;10.20;99.90;;;;;;5130561;27;19927;-72
2022/11/25 14:06:18;;;;;;;;;;;10.10;99.90;;;;;;5102996;27;19919;-70
2022/11/25 14:09:02;;;;;;;;;;;10.10;99.90;;;;;;5090999;28;19927;-70
2022/11/25 14:11:27;;;;;;;;;;;9.90;99.90;;;;;;5103586;28;19999;-71
2022/11/25 14:13:59;;;;;;;;;;;9.90;99.90;;;;;;5107822;28;20007;-73
2022/11/25 14:16:34;;;;;;;;;;;9.80;99.90;;;;;;5099330;28;19919;-71
2022/11/25 14:19:20;;;;;;;;;;;9.80;99.90;;;;;;5091938;28;19965;-71
2022/11/25 14:21:57;;;;;;;;;;;9.70;99.90;;;;;;5079219;27;20018;-71
2022/11/25 14:24:43;;;;;;;;;;;9.60;99.90;;;;;;5086235;28;19976;-70
2022/11/25 14:27:14;;;;;;;;;;;9.60;99.90;;;;;;5105586;28;20267;-70
2022/11/25 14:29:42;;;;;;;;;;;9.50;99.90;;;;;;5107073;28;20372;-70
2022/11/25 14:32:17;;;;;;;;;;;9.40;99.90;;;;;;5142018;27;20221;-70
2022/11/25 14:34:46;;;;;;;;;;;9.40;99.90;;;;;;5109733;28;20414;-70
2022/11/25 14:37:14;;;;;;;;;;;9.40;99.90;;;;;;5102695;28;20366;-71
2022/11/25 14:40:09;;;;;;;;;;;9.30;99.90;;;;;;5108305;28;19919;-71
2022/11/25 14:42:36;;;;;;;;;;;9.40;99.90;;;;;;5087656;28;20050;-70
2022/11/25 14:45:02;;;;;;;;;;;9.40;99.90;;;;;;5138753;27;19927;-70
2022/11/25 14:47:30;;;;;;;;;;;9.40;99.90;;;;;;5101436;28;19969;-71
2022/11/25 14:49:56;;;;;;;;;;;9.40;99.90;;;;;;5105585;28;19930;-70
2022/11/25 14:52:27;;;;;;;;;;;9.30;99.90;;;;;;5104052;28;19963;-70